createdAt,value
2022-12-23T00:01:00.221Z,9.90
2022-12-23T00:03:29.399Z,10.00
2022-12-23T00:05:57.880Z,10.00
2022-12-23T00:08:26.538Z,10.00
2022-12-23T00:10:57.674Z,10.00
2022-12-23T00:13:43.142Z,10.00
2022-12-23T00:16:14.261Z,10.10
2022-12-23T00:18:42.799Z,9.90
2022-12-23T00:21:12.403Z,10.00
2022-12-23T00:23:42.813Z,9.80
2022-12-23T00:26:16.654Z,9.90
2022-12-23T00:28:44.755Z,9.90
2022-12-23T00:31:13.310Z,9.90
2022-12-23T00:33:43.109Z,9.90
2022-12-23T00:36:16.154Z,9.80
2022-12-23T00:39:01.773Z,9.80
2022-12-23T00:41:48.586Z,9.70
2022-12-23T00:44:16.581Z,9.80
2022-12-23T00:46:44.371Z,9.70
2022-12-23T00:49:31.451Z,9.70
2022-12-23T00:51:59.575Z,9.80
2022-12-23T00:54:27.712Z,9.60
2022-12-23T00:56:56.870Z,9.70
2022-12-23T00:59:24.678Z,9.70
2022-12-23T01:02:09.891Z,9.70
2022-12-23T01:04:55.261Z,9.70
2022-12-23T01:07:24.090Z,9.70
2022-12-23T01:09:51.896Z,9.70
2022-12-23T01:12:21.045Z,9.70
2022-12-23T01:14:49.156Z,9.80
2022-12-23T01:17:17.323Z,9.60
2022-12-23T01:19:45.177Z,9.70
2022-12-23T01:22:13.022Z,9.60
2022-12-23T01:24:40.813Z,9.60
2022-12-23T01:27:08.777Z,9.60
2022-12-23T01:29:37.920Z,9.60
2022-12-23T01:32:05.983Z,9.60
2022-12-23T01:34:37.015Z,9.60
2022-12-23T01:37:05.651Z,9.40
2022-12-23T01:39:33.514Z,9.60
2022-12-23T01:42:18.966Z,9.50
2022-12-23T01:44:51.480Z,9.60
2022-12-23T01:47:28.362Z,9.60
2022-12-23T01:49:59.414Z,9.60
2022-12-23T01:52:28.188Z,9.60
2022-12-23T01:54:57.091Z,9.60
2022-12-23T01:57:25.468Z,9.60
2022-12-23T02:00:13.091Z,9.70
2022-12-23T02:03:01.129Z,9.60
2022-12-23T02:05:29.375Z,9.60
2022-12-23T02:08:15.233Z,9.60
2022-12-23T02:11:01.630Z,9.60
2022-12-23T02:13:35.825Z,9.60
2022-12-23T02:16:18.448Z,9.60
2022-12-23T02:19:02.649Z,9.60
2022-12-23T02:21:48.307Z,9.60
2022-12-23T02:24:57.096Z,9.60
2022-12-23T02:27:30.470Z,9.60
2022-12-23T02:30:27.138Z,9.60
2022-12-23T02:33:14.093Z,9.50
2022-12-23T02:35:47.606Z,9.60
2022-12-23T02:38:21.739Z,9.60
2022-12-23T02:40:56.017Z,9.70
2022-12-23T02:43:30.875Z,9.60
2022-12-23T02:46:03.091Z,9.60
2022-12-23T02:48:38.751Z,9.70
2022-12-23T02:51:08.996Z,9.60
2022-12-23T02:53:40.691Z,9.60
2022-12-23T02:56:11.301Z,9.60
2022-12-23T02:58:45.038Z,9.60
2022-12-23T03:01:16.242Z,9.70
2022-12-23T03:03:46.638Z,9.60
2022-12-23T03:06:20.510Z,9.60
2022-12-23T03:08:50.509Z,9.70
2022-12-23T03:11:19.160Z,9.70
2022-12-23T03:14:16.008Z,9.70
2022-12-23T03:16:53.083Z,9.80
2022-12-23T03:19:31.119Z,9.80
2022-12-23T03:22:08.190Z,9.80
2022-12-23T03:24:45.660Z,9.80
2022-12-23T03:27:18.419Z,9.80
2022-12-23T03:29:55.968Z,9.90
2022-12-23T03:32:25.001Z,9.90
2022-12-23T03:34:57.098Z,10.00
2022-12-23T03:37:27.495Z,9.90
2022-12-23T03:40:01.587Z,9.90
2022-12-23T03:42:35.274Z,9.90
2022-12-23T03:45:37.528Z,10.00
2022-12-23T03:48:01.608Z,10.00
2022-12-23T03:50:33.083Z,10.10
2022-12-23T03:53:04.642Z,10.00
2022-12-23T03:55:37.340Z,10.10
2022-12-23T03:58:11.182Z,10.00
2022-12-23T04:00:46.091Z,10.00
2022-12-23T04:03:19.711Z,10.10
2022-12-23T04:05:53.695Z,10.10
2022-12-23T04:08:26.332Z,10.10
2022-12-23T04:10:54.346Z,10.10
2022-12-23T04:13:22.165Z,10.10
2022-12-23T04:15:50.255Z,10.70
2022-12-23T04:18:18.056Z,10.10
2022-12-23T04:20:45.877Z,10.10
2022-12-23T04:23:15.004Z,10.10
2022-12-23T04:25:42.833Z,10.20
2022-12-23T04:28:10.619Z,10.10
2022-12-23T04:30:38.414Z,10.20
2022-12-23T04:33:06.185Z,10.20
2022-12-23T04:35:33.971Z,10.20
2022-12-23T04:38:01.741Z,10.20
2022-12-23T04:40:30.877Z,10.30
2022-12-23T04:42:58.655Z,10.20
2022-12-23T04:45:26.480Z,10.20
2022-12-23T04:47:54.534Z,10.20
2022-12-23T04:50:22.398Z,10.30
2022-12-23T04:52:50.169Z,10.20
2022-12-23T04:55:18.043Z,10.20
2022-12-23T04:57:47.174Z,10.20
2022-12-23T05:00:16.009Z,10.20
2022-12-23T05:02:43.895Z,10.20
2022-12-23T05:05:11.790Z,10.20
2022-12-23T05:07:39.625Z,10.20
2022-12-23T05:10:08.706Z,10.20
2022-12-23T05:12:36.506Z,10.30
2022-12-23T05:15:06.358Z,10.30
2022-12-23T05:17:34.189Z,10.30
2022-12-23T05:20:02.012Z,10.30
2022-12-23T05:22:29.805Z,10.30
2022-12-23T05:24:57.577Z,10.30
2022-12-23T05:27:25.398Z,10.20
2022-12-23T05:29:53.156Z,10.30
2022-12-23T05:32:22.301Z,10.40
2022-12-23T05:34:50.121Z,10.40
2022-12-23T05:37:17.901Z,10.40
2022-12-23T05:39:45.684Z,10.40
2022-12-23T05:42:13.690Z,10.40
2022-12-23T05:44:41.447Z,10.50
2022-12-23T05:47:09.247Z,10.50
2022-12-23T05:49:38.434Z,10.40
2022-12-23T05:52:06.417Z,10.40
2022-12-23T05:54:34.229Z,10.50
2022-12-23T05:57:02.072Z,10.40
2022-12-23T05:59:31.592Z,10.40
2022-12-23T06:01:59.923Z,10.40
2022-12-23T06:04:28.247Z,10.40
2022-12-23T06:06:57.583Z,10.50
2022-12-23T06:09:25.380Z,10.40
2022-12-23T06:11:53.168Z,10.40
2022-12-23T06:14:26.871Z,10.50
2022-12-23T06:16:56.593Z,10.40
2022-12-23T06:19:24.400Z,10.50
2022-12-23T06:21:52.169Z,10.50
2022-12-23T06:24:21.313Z,10.50
2022-12-23T06:26:54.870Z,10.50
2022-12-23T06:29:24.893Z,10.50
2022-12-23T06:31:52.759Z,10.60
2022-12-23T06:34:20.626Z,10.50
2022-12-23T06:36:48.400Z,10.60
2022-12-23T06:39:16.208Z,10.60
2022-12-23T06:41:45.477Z,10.50
2022-12-23T06:44:13.278Z,10.60
2022-12-23T06:46:41.049Z,10.60
2022-12-23T06:49:13.080Z,10.50
2022-12-23T06:51:41.663Z,10.50
2022-12-23T06:54:11.658Z,10.50
2022-12-23T06:56:39.616Z,10.50
2022-12-23T06:59:08.745Z,10.50
2022-12-23T07:01:36.629Z,10.50
2022-12-23T07:04:04.596Z,10.50
2022-12-23T07:06:32.545Z,10.50
2022-12-23T07:09:00.393Z,10.40
2022-12-23T07:11:28.168Z,10.50
2022-12-23T07:13:55.995Z,10.50
2022-12-23T07:16:25.110Z,10.40
2022-12-23T07:18:52.917Z,10.50
2022-12-23T07:21:28.594Z,10.50
2022-12-23T07:23:57.201Z,10.50
2022-12-23T07:26:24.983Z,10.50
2022-12-23T07:28:52.745Z,10.50
2022-12-23T07:31:20.543Z,10.50
2022-12-23T07:33:49.809Z,10.50
2022-12-23T07:36:17.775Z,10.40
2022-12-23T07:38:45.673Z,10.40
2022-12-23T07:41:13.446Z,10.50
2022-12-23T07:43:41.292Z,10.50
2022-12-23T07:46:09.797Z,10.50
2022-12-23T07:48:37.815Z,10.50
2022-12-23T07:51:07.169Z,10.50
2022-12-23T07:53:35.058Z,10.60
2022-12-23T07:56:02.926Z,10.50
2022-12-23T07:58:30.718Z,10.60
2022-12-23T08:01:02.909Z,10.50
2022-12-23T08:03:30.802Z,10.60
2022-12-23T08:06:02.793Z,10.60
2022-12-23T08:08:32.689Z,10.60
2022-12-23T08:11:01.430Z,10.60
2022-12-23T08:13:29.961Z,10.60
2022-12-23T08:15:58.736Z,10.60
2022-12-23T08:18:30.799Z,10.60
2022-12-23T08:20:59.420Z,10.60
2022-12-23T08:23:28.589Z,10.60
2022-12-23T08:26:05.062Z,10.60
2022-12-23T08:28:34.083Z,10.70
2022-12-23T08:31:07.115Z,10.60
2022-12-23T08:33:36.343Z,10.70
2022-12-23T08:36:04.268Z,10.60
2022-12-23T08:38:32.099Z,10.60
2022-12-23T08:40:59.927Z,10.70
2022-12-23T08:43:35.564Z,10.70
2022-12-23T08:46:04.349Z,10.80
2022-12-23T08:48:32.841Z,10.70
2022-12-23T08:51:04.006Z,10.80
2022-12-23T08:53:31.866Z,10.80
2022-12-23T08:56:02.925Z,10.80
2022-12-23T08:58:32.263Z,10.90
2022-12-23T09:01:04.730Z,10.90
2022-12-23T09:03:33.077Z,10.90
2022-12-23T09:06:05.755Z,11.00
2022-12-23T09:08:33.535Z,11.00
2022-12-23T09:11:01.688Z,11.00
2022-12-23T09:13:35.245Z,11.10
2022-12-23T09:16:05.945Z,11.00
2022-12-23T09:18:33.939Z,11.10
2022-12-23T09:21:03.382Z,11.10
2022-12-23T09:23:31.186Z,11.10
2022-12-23T09:25:59.040Z,11.10
2022-12-23T09:28:27.708Z,11.10
2022-12-23T09:30:55.557Z,11.10
2022-12-23T09:33:24.787Z,11.10
2022-12-23T09:35:52.596Z,11.20
2022-12-23T09:38:20.395Z,11.20
2022-12-23T09:40:48.226Z,11.20
2022-12-23T09:43:30.109Z,11.20
2022-12-23T09:46:07.238Z,11.20
2022-12-23T09:48:42.613Z,11.30
2022-12-23T09:51:12.332Z,11.30
2022-12-23T09:53:50.601Z,11.30
2022-12-23T09:56:25.917Z,11.30
2022-12-23T09:59:03.439Z,11.30
2022-12-23T10:01:42.948Z,11.30
2022-12-23T10:04:36.700Z,11.30
2022-12-23T10:07:28.693Z,11.30
2022-12-23T10:09:59.075Z,11.40
2022-12-23T10:12:39.789Z,11.30
2022-12-23T10:15:21.063Z,11.40
2022-12-23T10:17:53.601Z,11.40
2022-12-23T10:20:34.710Z,11.40
2022-12-23T10:23:02.490Z,11.40
2022-12-23T10:25:36.200Z,11.40
2022-12-23T10:28:04.099Z,11.50
2022-12-23T10:31:17.138Z,11.50
2022-12-23T10:33:37.211Z,11.50
2022-12-23T10:36:12.379Z,11.50
2022-12-23T10:38:49.542Z,11.50
2022-12-23T10:41:26.386Z,11.50
2022-12-23T10:44:23.182Z,11.50
2022-12-23T10:47:01.056Z,11.50
2022-12-23T10:49:41.688Z,11.50
2022-12-23T10:52:16.341Z,11.50
2022-12-23T10:54:47.176Z,11.50
2022-12-23T10:57:17.321Z,11.50
2022-12-23T10:59:45.247Z,11.50
2022-12-23T11:02:33.028Z,11.50
2022-12-23T11:05:00.906Z,11.50
2022-12-23T11:07:47.101Z,11.60
2022-12-23T11:10:19.297Z,11.50
2022-12-23T11:12:48.761Z,11.60
2022-12-23T11:15:28.184Z,11.60
2022-12-23T11:18:05.231Z,11.60
2022-12-23T11:20:34.364Z,11.60
2022-12-23T11:23:05.513Z,11.50
2022-12-23T11:25:36.682Z,11.50
2022-12-23T11:28:08.105Z,11.50
2022-12-23T11:30:39.688Z,11.50
2022-12-23T11:33:18.211Z,11.50
2022-12-23T11:35:46.126Z,11.50
2022-12-23T11:38:15.836Z,11.50
2022-12-23T11:40:47.955Z,11.50
2022-12-23T11:43:17.210Z,11.50
2022-12-23T11:45:45.134Z,11.50
2022-12-23T11:48:30.300Z,11.50
2022-12-23T11:51:02.335Z,11.50
2022-12-23T11:53:32.274Z,11.40
2022-12-23T11:56:03.641Z,11.50
2022-12-23T11:58:37.476Z,11.50
2022-12-23T12:01:15.650Z,11.40
2022-12-23T12:03:48.794Z,11.50
2022-12-23T12:06:19.609Z,11.40
2022-12-23T12:08:53.057Z,11.50
2022-12-23T12:11:25.712Z,11.50
2022-12-23T12:13:58.565Z,11.50
2022-12-23T12:16:42.461Z,11.50
2022-12-23T12:19:15.021Z,11.50
2022-12-23T12:21:44.667Z,11.50
2022-12-23T12:24:19.740Z,11.60
2022-12-23T12:26:52.471Z,11.60
2022-12-23T12:29:25.403Z,11.60
2022-12-23T12:31:56.116Z,11.60
2022-12-23T12:34:35.739Z,11.60
2022-12-23T12:37:11.277Z,11.60
2022-12-23T12:39:44.519Z,11.60
2022-12-23T12:42:16.818Z,11.60
2022-12-23T12:44:48.871Z,11.60
2022-12-23T12:47:52.087Z,11.70
2022-12-23T12:50:16.263Z,11.70
2022-12-23T12:52:44.880Z,11.70
2022-12-23T12:55:21.017Z,11.70
2022-12-23T12:57:48.863Z,11.70
2022-12-23T13:00:18.935Z,11.70
2022-12-23T13:03:05.382Z,11.70
2022-12-23T13:06:01.307Z,11.60
2022-12-23T13:08:44.576Z,11.70
2022-12-23T13:11:26.571Z,11.70
2022-12-23T13:14:02.238Z,11.70
2022-12-23T13:16:39.234Z,11.70
2022-12-23T13:19:15.415Z,11.60
2022-12-23T13:21:50.696Z,11.70
2022-12-23T13:24:25.348Z,11.60
2022-12-23T13:27:03.942Z,11.60
2022-12-23T13:29:58.049Z,11.60
2022-12-23T13:32:42.074Z,11.60
2022-12-23T13:35:22.987Z,11.60
2022-12-23T13:37:55.795Z,11.60
2022-12-23T13:40:35.937Z,11.60
2022-12-23T13:43:19.285Z,11.60
2022-12-23T13:45:48.278Z,11.50
2022-12-23T13:48:37.323Z,11.50
2022-12-23T13:51:12.728Z,11.50
2022-12-23T13:54:04.375Z,11.50
2022-12-23T13:56:43.075Z,11.50
2022-12-23T13:59:13.847Z,11.50
2022-12-23T14:01:47.491Z,11.50
2022-12-23T14:04:34.440Z,11.50
2022-12-23T14:07:05.742Z,11.50
2022-12-23T14:10:45.425Z,11.50
2022-12-23T14:14:26.248Z,11.40
2022-12-23T14:17:49.355Z,11.60
2022-12-23T14:21:22.211Z,11.30
2022-12-23T14:43:44.784Z,11.20
2022-12-23T14:55:40.053Z,11.40
2022-12-23T15:16:05.378Z,11.20
2022-12-23T15:42:22.780Z,11.30
2022-12-23T15:44:50.673Z,11.30
2022-12-23T15:47:30.391Z,11.30
2022-12-23T15:50:01.325Z,11.30
2022-12-23T15:52:30.396Z,11.30
2022-12-23T15:55:01.753Z,11.30
2022-12-23T15:57:31.135Z,11.30
2022-12-23T16:00:00.047Z,11.30
2022-12-23T16:02:59.743Z,11.30
2022-12-23T16:05:29.554Z,11.30
2022-12-23T16:08:11.633Z,11.30
2022-12-23T16:10:39.773Z,11.30
2022-12-23T16:13:17.853Z,11.30
2022-12-23T16:15:46.030Z,11.30
2022-12-23T16:18:15.196Z,11.30
2022-12-23T16:20:47.114Z,11.30
2022-12-23T16:23:15.731Z,11.30
2022-12-23T16:25:50.449Z,11.30
2022-12-23T16:28:24.054Z,11.30
2022-12-23T16:30:54.930Z,11.30
2022-12-23T16:33:36.942Z,11.30
2022-12-23T16:36:20.079Z,11.30
2022-12-23T16:38:49.601Z,11.30
2022-12-23T16:41:17.552Z,11.30
2022-12-23T16:43:51.829Z,11.30
2022-12-23T16:46:21.973Z,11.30
2022-12-23T16:48:51.689Z,11.30
2022-12-23T16:51:22.963Z,11.30
2022-12-23T16:53:52.445Z,11.30
2022-12-23T16:56:21.712Z,11.30
2022-12-23T16:58:49.730Z,11.40
2022-12-23T17:01:22.972Z,11.30
2022-12-23T17:03:50.822Z,11.30
2022-12-23T17:06:20.688Z,11.30
2022-12-23T17:08:49.025Z,11.40
2022-12-23T17:11:18.956Z,11.40
2022-12-23T17:13:46.875Z,11.40
2022-12-23T17:16:16.220Z,11.40
2022-12-23T17:18:44.055Z,11.40
2022-12-23T17:21:21.601Z,11.40
2022-12-23T17:23:49.810Z,11.40
2022-12-23T17:26:17.598Z,11.40
2022-12-23T17:28:45.605Z,11.50
2022-12-23T17:31:16.310Z,11.40
2022-12-23T17:33:47.146Z,11.50
2022-12-23T17:36:16.003Z,11.50
2022-12-23T17:38:45.134Z,11.50
2022-12-23T17:41:20.799Z,11.50
2022-12-23T17:43:48.564Z,11.50
2022-12-23T17:46:16.394Z,11.60
2022-12-23T17:48:46.896Z,11.60
2022-12-23T17:51:15.940Z,11.60
2022-12-23T17:53:45.304Z,11.60
2022-12-23T17:56:15.376Z,11.60
2022-12-23T17:58:44.058Z,11.60
2022-12-23T18:01:18.821Z,11.60
2022-12-23T18:03:46.850Z,11.60
2022-12-23T18:06:15.846Z,11.60
2022-12-23T18:08:45.172Z,11.60
2022-12-23T18:11:21.365Z,11.60
2022-12-23T18:13:49.988Z,11.60
2022-12-23T18:16:17.821Z,11.60
2022-12-23T18:18:46.800Z,11.60
2022-12-23T18:21:21.340Z,11.60
2022-12-23T18:23:51.289Z,11.60
2022-12-23T18:26:19.157Z,11.60
2022-12-23T18:28:46.960Z,11.60
2022-12-23T18:31:17.289Z,11.60
2022-12-23T18:33:45.910Z,11.60
2022-12-23T18:36:21.908Z,11.60
2022-12-23T18:38:52.068Z,11.60
2022-12-23T18:41:20.232Z,11.60
2022-12-23T18:43:48.187Z,11.60
2022-12-23T18:46:16.099Z,11.60
2022-12-23T18:48:43.995Z,11.60
2022-12-23T18:51:15.426Z,11.60
2022-12-23T18:53:43.645Z,11.60
2022-12-23T18:56:15.150Z,11.60
2022-12-23T18:58:48.729Z,11.60
2022-12-23T19:01:20.305Z,11.70
2022-12-23T19:03:48.279Z,11.70
2022-12-23T19:06:16.836Z,11.70
2022-12-23T19:08:45.950Z,11.70
2022-12-23T19:11:16.933Z,11.70
2022-12-23T19:13:45.280Z,11.70
2022-12-23T19:16:15.045Z,11.70
2022-12-23T19:18:45.839Z,11.70
2022-12-23T19:21:14.233Z,11.70
2022-12-23T19:23:42.936Z,11.70
2022-12-23T19:26:11.792Z,11.70
2022-12-23T19:28:41.758Z,11.70
2022-12-23T19:31:10.150Z,11.70
2022-12-23T19:33:38.432Z,11.70
2022-12-23T19:36:10.746Z,11.70
2022-12-23T19:38:41.051Z,11.80
2022-12-23T19:41:09.414Z,11.70
2022-12-23T19:43:38.386Z,11.80
2022-12-23T19:46:09.571Z,11.80
2022-12-23T19:48:38.155Z,11.80
2022-12-23T19:51:08.252Z,11.80
2022-12-23T19:53:36.349Z,11.80
2022-12-23T19:56:07.294Z,11.80
2022-12-23T19:58:37.503Z,11.80
2022-12-23T20:01:11.521Z,11.80
2022-12-23T20:03:39.835Z,11.80
2022-12-23T20:06:10.165Z,11.80
2022-12-23T20:08:37.956Z,11.80
2022-12-23T20:11:08.323Z,11.80
2022-12-23T20:13:37.021Z,11.80
2022-12-23T20:16:08.006Z,11.80
2022-12-23T20:18:37.436Z,11.90
2022-12-23T20:21:06.912Z,11.90
2022-12-23T20:23:34.935Z,11.90
2022-12-23T20:26:03.233Z,11.90
2022-12-23T20:28:31.092Z,11.90
2022-12-23T20:31:07.358Z,11.90
2022-12-23T20:33:36.671Z,12.00
2022-12-23T20:36:09.116Z,11.90
2022-12-23T20:38:40.045Z,12.00
2022-12-23T20:41:15.146Z,12.00
2022-12-23T20:43:46.127Z,12.00
2022-12-23T20:46:26.772Z,12.00
2022-12-23T20:48:55.914Z,12.00
2022-12-23T20:51:28.066Z,12.00
2022-12-23T20:53:59.764Z,12.10
2022-12-23T20:56:30.331Z,12.10
2022-12-23T20:58:59.443Z,12.10
2022-12-23T21:01:29.568Z,12.10
2022-12-23T21:04:00.658Z,12.10
2022-12-23T21:06:30.988Z,12.10
2022-12-23T21:08:59.787Z,12.00
2022-12-23T21:11:32.064Z,12.00
2022-12-23T21:14:06.308Z,12.00
2022-12-23T21:16:35.681Z,12.00
2022-12-23T21:19:05.490Z,12.00
2022-12-23T21:21:33.285Z,12.10
2022-12-23T21:24:04.301Z,12.00
2022-12-23T21:26:34.454Z,11.90
2022-12-23T21:29:04.055Z,11.90
2022-12-23T21:31:33.740Z,11.80
2022-12-23T21:34:02.092Z,11.80
2022-12-23T21:36:36.172Z,11.80
2022-12-23T21:39:05.275Z,11.70
2022-12-23T21:41:41.100Z,11.80
2022-12-23T21:44:09.542Z,11.70
2022-12-23T21:46:37.406Z,11.60
2022-12-23T21:49:05.250Z,11.60
2022-12-23T21:51:40.047Z,11.60
2022-12-23T21:54:08.665Z,11.60
2022-12-23T21:56:39.207Z,11.60
2022-12-23T21:59:09.287Z,11.50
2022-12-23T22:01:37.121Z,11.50
2022-12-23T22:04:07.415Z,11.50
2022-12-23T22:06:38.567Z,11.40
2022-12-23T22:09:07.280Z,11.40
2022-12-23T22:11:37.146Z,11.40
2022-12-23T22:14:06.469Z,11.30
2022-12-23T22:16:35.388Z,11.40
2022-12-23T22:19:06.486Z,11.40
2022-12-23T22:21:36.728Z,11.40
2022-12-23T22:26:52.972Z,11.40
2022-12-23T22:29:20.772Z,11.30
2022-12-23T22:31:52.902Z,11.30
2022-12-23T22:34:22.807Z,11.30
2022-12-23T22:36:52.188Z,11.30
2022-12-23T22:39:21.998Z,11.40
2022-12-23T22:41:50.464Z,11.30
2022-12-23T22:44:18.422Z,11.30
2022-12-23T22:46:46.351Z,11.40
2022-12-23T22:49:15.083Z,11.40
2022-12-23T22:51:43.891Z,11.40
2022-12-23T22:54:13.122Z,11.30
2022-12-23T22:56:41.083Z,11.50
2022-12-23T22:59:11.405Z,11.50
2022-12-23T23:01:39.395Z,11.50
2022-12-23T23:04:07.888Z,11.50
2022-12-23T23:06:37.822Z,11.50
2022-12-23T23:09:08.392Z,11.50
2022-12-23T23:11:37.781Z,11.60
2022-12-23T23:14:05.588Z,11.60
2022-12-23T23:16:34.104Z,11.60
2022-12-23T23:19:02.436Z,11.60
2022-12-23T23:21:30.411Z,11.60
2022-12-23T23:23:58.176Z,11.60
2022-12-23T23:26:27.250Z,11.70
2022-12-23T23:28:56.787Z,11.70
2022-12-23T23:31:43.338Z,11.60
2022-12-23T23:34:12.190Z,11.60
2022-12-23T23:36:40.378Z,11.60
2022-12-23T23:39:08.293Z,11.60
2022-12-23T23:41:36.192Z,11.60
2022-12-23T23:44:05.668Z,11.60
2022-12-23T23:46:33.653Z,11.60
2022-12-23T23:49:01.622Z,11.60
2022-12-23T23:51:29.400Z,11.60
2022-12-23T23:53:57.201Z,11.60
2022-12-23T23:56:26.708Z,11.60
2022-12-23T23:58:56.070Z,11.60
